createdAt,value
2022-10-28T00:04:15.246Z,85.26
2022-10-28T00:09:37.281Z,86.83
2022-10-28T00:14:59.131Z,88.20
2022-10-28T00:20:20.879Z,89.27
2022-10-28T00:25:42.626Z,89.79
2022-10-28T00:31:06.686Z,89.34
2022-10-28T00:36:32.000Z,87.43
2022-10-28T00:41:56.132Z,87.13
2022-10-28T00:47:37.762Z,85.74
2022-10-28T00:53:03.704Z,88.44
2022-10-28T00:58:26.637Z,89.00
2022-10-28T01:03:48.415Z,87.88
2022-10-28T01:09:10.066Z,89.14
2022-10-28T01:14:56.703Z,89.07
2022-10-28T01:20:27.477Z,89.46
2022-10-28T01:25:57.909Z,89.81
2022-10-28T01:31:42.292Z,89.59
2022-10-28T01:37:19.681Z,90.10
2022-10-28T01:42:47.437Z,91.61
2022-10-28T01:48:15.487Z,91.32
2022-10-28T01:53:43.085Z,90.05
2022-10-28T01:59:07.757Z,88.71
2022-10-28T02:04:29.604Z,88.81
2022-10-28T02:10:03.882Z,90.50
2022-10-28T02:15:43.159Z,91.06
2022-10-28T02:21:18.147Z,91.98
2022-10-28T02:26:45.643Z,90.72
2022-10-28T02:32:14.671Z,89.94
2022-10-28T02:37:39.726Z,92.25
2022-10-28T02:43:05.513Z,92.87
2022-10-28T02:48:35.004Z,92.71
2022-10-28T02:54:01.204Z,93.75
2022-10-28T02:59:25.591Z,94.35
2022-10-28T03:04:47.311Z,94.17
2022-10-28T03:10:09.849Z,94.43
2022-10-28T03:15:31.520Z,93.90
2022-10-28T03:20:55.511Z,93.06
2022-10-28T03:26:19.828Z,94.53
2022-10-28T03:31:41.538Z,94.90
2022-10-28T03:37:03.229Z,92.91
2022-10-28T03:42:24.893Z,92.59
2022-10-28T03:47:46.561Z,92.92
2022-10-28T03:53:08.353Z,92.35
2022-10-28T03:58:30.156Z,92.02
2022-10-28T04:03:51.931Z,92.52
2022-10-28T04:09:13.598Z,93.32
2022-10-28T04:14:35.271Z,93.58
2022-10-28T04:19:57.012Z,94.06
2022-10-28T04:25:19.182Z,95.03
2022-10-28T04:30:40.917Z,94.02
2022-10-28T04:36:02.618Z,93.52
2022-10-28T04:41:24.300Z,93.79
2022-10-28T04:46:45.949Z,93.27
2022-10-28T04:52:09.736Z,94.18
2022-10-28T04:57:33.813Z,94.49
2022-10-28T05:02:56.183Z,95.30
2022-10-28T05:08:18.021Z,94.84
2022-10-28T05:13:39.747Z,96.66
2022-10-28T05:19:01.469Z,96.09
2022-10-28T05:24:23.230Z,95.02
2022-10-28T05:29:44.943Z,95.95
2022-10-28T05:35:07.155Z,96.95
2022-10-28T05:40:29.199Z,97.44
2022-10-28T05:45:57.597Z,97.86
2022-10-28T05:51:19.428Z,97.66
2022-10-28T05:56:41.101Z,96.12
2022-10-28T06:02:03.250Z,95.57
2022-10-28T06:07:25.361Z,94.88
2022-10-28T06:12:45.508Z,93.11
2022-10-28T06:18:07.205Z,93.18
2022-10-28T06:23:28.933Z,91.88
2022-10-28T06:28:50.631Z,90.59
2022-10-28T06:34:12.367Z,89.88
2022-10-28T06:39:34.201Z,91.93
2022-10-28T06:44:55.996Z,91.75
2022-10-28T06:50:19.193Z,92.09
2022-10-28T06:55:41.009Z,93.77
2022-10-28T07:01:04.666Z,92.69
2022-10-28T07:06:26.365Z,92.33
2022-10-28T07:11:53.658Z,91.65
2022-10-28T07:17:17.012Z,92.52
2022-10-28T07:22:38.671Z,92.98
2022-10-28T07:28:01.096Z,91.42
2022-10-28T07:33:22.784Z,90.70
2022-10-28T07:38:44.524Z,91.36
2022-10-28T07:44:06.789Z,89.50
2022-10-28T07:49:28.513Z,88.05
2022-10-28T07:54:50.989Z,86.86
2022-10-28T08:00:13.315Z,86.65
2022-10-28T08:05:34.969Z,86.27
2022-10-28T08:10:56.673Z,88.72
2022-10-28T08:16:19.021Z,88.76
2022-10-28T08:21:40.737Z,88.82
2022-10-28T08:27:02.500Z,89.14
2022-10-28T08:32:24.297Z,86.53
2022-10-28T08:37:51.586Z,86.02
2022-10-28T08:44:02.988Z,85.24
2022-10-28T08:49:24.915Z,85.77
2022-10-28T08:54:51.842Z,86.47
2022-10-28T09:00:20.887Z,85.83
2022-10-28T09:05:47.848Z,86.55
2022-10-28T09:12:02.296Z,85.20
2022-10-28T09:17:54.869Z,84.62
2022-10-28T09:23:32.155Z,85.04
2022-10-28T09:29:14.102Z,82.45
2022-10-28T09:34:51.953Z,82.19
2022-10-28T09:40:19.114Z,82.61
2022-10-28T09:45:46.867Z,82.97
2022-10-28T09:51:45.248Z,83.84
2022-10-28T09:57:07.378Z,84.20
2022-10-28T10:02:32.218Z,83.81
2022-10-28T10:08:05.402Z,83.51
2022-10-28T10:13:36.537Z,81.38
2022-10-28T10:19:00.969Z,80.03
2022-10-28T10:24:32.037Z,79.27
2022-10-28T10:29:55.345Z,78.73
2022-10-28T10:35:23.108Z,79.47
2022-10-28T10:40:52.298Z,79.96
2022-10-28T10:46:16.381Z,78.19
2022-10-28T10:51:41.203Z,78.21
2022-10-28T10:57:16.962Z,79.62
2022-10-28T11:02:39.960Z,77.15
2022-10-28T11:08:04.998Z,73.77
2022-10-28T11:13:33.521Z,74.05
2022-10-28T11:18:55.204Z,74.94
2022-10-28T11:24:46.760Z,75.69
2022-10-28T11:30:17.008Z,76.43
2022-10-28T11:35:48.728Z,76.53
2022-10-28T11:41:19.449Z,79.41
2022-10-28T11:47:19.715Z,80.31
2022-10-28T11:53:15.215Z,82.77
2022-10-28T11:58:58.125Z,82.43
2022-10-28T12:04:36.956Z,82.53
2022-10-28T12:10:30.698Z,82.88
2022-10-28T12:16:03.082Z,82.53
2022-10-28T12:21:31.576Z,78.01
2022-10-28T12:26:57.009Z,77.05
2022-10-28T12:32:32.021Z,76.57
2022-10-28T12:38:12.667Z,75.51
2022-10-28T12:43:47.300Z,76.83
2022-10-28T12:49:18.761Z,79.22
2022-10-28T12:54:58.302Z,79.92
2022-10-28T13:00:25.757Z,79.18
2022-10-28T13:06:15.962Z,78.83
2022-10-28T13:12:14.916Z,78.90
2022-10-28T13:17:45.802Z,78.98
2022-10-28T13:23:32.993Z,77.01
2022-10-28T13:28:58.376Z,77.63
2022-10-28T13:34:30.319Z,77.49
2022-10-28T13:39:52.034Z,77.88
2022-10-28T13:45:49.605Z,78.23
2022-10-28T13:51:11.237Z,78.59
2022-10-28T13:56:44.085Z,80.46
2022-10-28T14:02:34.614Z,82.43
2022-10-28T14:08:01.230Z,84.62
2022-10-28T14:13:23.199Z,85.22
2022-10-28T14:19:02.770Z,85.64
2022-10-28T14:24:39.566Z,85.91
2022-10-28T14:30:01.177Z,86.87
2022-10-28T14:35:32.686Z,86.85
2022-10-28T14:41:06.559Z,85.99
2022-10-28T14:46:28.258Z,84.71
2022-10-28T14:51:51.029Z,85.04
2022-10-28T14:57:12.807Z,84.24
2022-10-28T15:02:37.783Z,82.96
2022-10-28T15:08:03.656Z,81.52
2022-10-28T15:13:26.342Z,80.90
2022-10-28T15:18:50.298Z,81.00
2022-10-28T15:24:13.732Z,81.03
2022-10-28T15:29:35.599Z,80.96
2022-10-28T15:34:57.546Z,80.47
2022-10-28T15:40:22.703Z,80.35
2022-10-28T15:45:45.657Z,79.03
2022-10-28T15:51:17.885Z,78.23
2022-10-28T15:56:57.250Z,78.44
2022-10-28T16:02:41.844Z,79.42
2022-10-28T16:08:15.332Z,79.81
2022-10-28T16:13:42.062Z,78.16
2022-10-28T16:19:10.464Z,76.37
2022-10-28T16:24:32.309Z,76.26
2022-10-28T16:29:54.304Z,77.67
2022-10-28T16:35:24.346Z,77.38
2022-10-28T16:40:51.349Z,76.20
2022-10-28T16:46:14.689Z,76.95
2022-10-28T16:51:36.460Z,77.72
2022-10-28T16:56:58.190Z,77.77
2022-10-28T17:02:25.844Z,78.14
2022-10-28T17:07:47.790Z,78.11
2022-10-28T17:13:14.515Z,78.79
2022-10-28T17:18:36.208Z,79.65
2022-10-28T17:23:57.964Z,80.00
2022-10-28T17:29:19.677Z,80.85
2022-10-28T17:34:41.528Z,81.56
2022-10-28T17:40:04.407Z,81.91
2022-10-28T17:45:26.236Z,81.92
2022-10-28T17:50:54.961Z,81.70
2022-10-28T17:56:16.742Z,82.04
2022-10-28T18:01:38.604Z,82.25
2022-10-28T18:07:00.391Z,82.57
2022-10-28T18:12:22.522Z,83.02
2022-10-28T18:17:49.093Z,82.33
2022-10-28T18:23:10.934Z,82.24
2022-10-28T18:28:34.769Z,83.10
2022-10-28T18:33:57.402Z,83.23
2022-10-28T18:39:19.063Z,82.85
2022-10-28T18:44:41.358Z,82.74
2022-10-28T18:50:03.858Z,82.81
2022-10-28T18:55:25.641Z,84.06
2022-10-28T19:00:47.499Z,83.60
2022-10-28T19:06:11.738Z,83.87
2022-10-28T19:11:34.110Z,83.25
2022-10-28T19:16:55.889Z,83.32
2022-10-28T19:22:18.726Z,83.88
2022-10-28T19:27:40.551Z,82.26
2022-10-28T19:33:02.271Z,81.61
2022-10-28T19:38:24.160Z,81.22
2022-10-28T19:43:46.912Z,79.78
2022-10-28T19:49:08.645Z,79.50
2022-10-28T19:54:30.346Z,80.16
2022-10-28T19:59:52.112Z,80.61
2022-10-28T20:05:13.961Z,81.04
2022-10-28T20:10:35.692Z,79.47
2022-10-28T20:16:01.698Z,80.82
2022-10-28T20:21:25.893Z,82.11
2022-10-28T20:26:47.578Z,81.23
2022-10-28T20:32:09.320Z,80.93
2022-10-28T20:37:31.021Z,81.76
2022-10-28T20:42:52.953Z,81.83
2022-10-28T20:48:14.897Z,82.58
2022-10-28T20:53:37.250Z,83.13
2022-10-28T20:58:59.445Z,83.41
2022-10-28T21:04:21.327Z,83.74
2022-10-28T21:09:43.089Z,84.47
2022-10-28T21:15:05.288Z,85.23
2022-10-28T21:20:26.957Z,84.77
2022-10-28T21:25:59.832Z,84.63
2022-10-28T21:31:23.214Z,84.67
2022-10-28T21:36:44.976Z,84.72
2022-10-28T21:42:07.051Z,85.50
2022-10-28T21:47:28.819Z,85.58
2022-10-28T21:52:50.619Z,86.52
2022-10-28T21:58:12.863Z,87.33
2022-10-28T22:03:34.809Z,87.49
2022-10-28T22:08:59.182Z,87.59
2022-10-28T22:14:21.377Z,88.36
2022-10-28T22:19:43.121Z,87.41
2022-10-28T22:25:09.368Z,87.50
2022-10-28T22:30:32.313Z,86.92
2022-10-28T22:35:58.141Z,86.99
2022-10-28T22:41:25.296Z,86.73
2022-10-28T22:46:47.043Z,86.86
2022-10-28T22:52:08.730Z,87.15
2022-10-28T22:57:30.389Z,86.64
2022-10-28T23:02:52.202Z,86.71
2022-10-28T23:08:15.899Z,88.04
2022-10-28T23:19:04.505Z,89.50
2022-10-28T23:24:26.248Z,88.34
2022-10-28T23:29:47.979Z,88.34
2022-10-28T23:35:09.962Z,87.72
2022-10-28T23:40:31.640Z,88.45
2022-10-28T23:45:53.825Z,88.57
2022-10-28T23:51:15.568Z,88.84
2022-10-28T23:56:37.223Z,88.58
